Terminal Aerodrome Forecast
Issued by NWS

Home | Current Version | Previous Version | Text Only | Print | Product List | Glossary On
Versions: 1 2 3 4 5 6 7 8 9 10 11 12 13 14 15 16
000
FTUS44 KLZK 191144
TAFHRO
TAF
KHRO 191144Z 1912/2012 17015G25KT P6SM VCSH OVC070 WS020/22055KT
     FM191800 18015G25KT P6SM VCSH OVC010 WS020/20055KT
     FM200000 17017G25KT P6SM VCSH BKN025 WS020/19045KT PROB30
      2000/2006 TS BKN025CB
     FM200800 18017G25KT 6SM -TSRA OVC010CB=

USA.gov is the U.S. government's official web portal to all federal, state and local government web resources and services.